Time,TemperatureF,DewpointF,PressureIn,WindDirection,WindDirectionDegrees,WindSpeedMPH,WindSpeedGustMPH,Humidity,HourlyPrecipIn,Conditions,Clouds,dailyrainin,SoftwareType,DateUTC
2013-02-25 00:01:00,38.0,36.0,30.05,East,90,0.0,2.0,93,0.00,,,0.00,,2013-02-25 08:01:00,
2013-02-25 00:11:00,38.0,36.0,30.05,East,90,0.0,2.0,93,0.00,,,0.00,,2013-02-25 08:11:00,
2013-02-25 00:21:00,38.0,36.0,30.05,East,90,0.0,2.0,93,0.00,,,0.00,,2013-02-25 08:21:00,
2013-02-25 00:31:00,37.0,36.0,30.06,NE,45,0.0,2.0,95,0.00,,,0.00,,2013-02-25 08:31:00,
2013-02-25 00:42:00,37.0,36.0,30.06,NE,45,0.0,2.0,95,0.00,,,0.00,,2013-02-25 08:42:00,
2013-02-25 00:52:00,37.0,36.0,30.06,NE,45,0.0,2.0,95,0.00,,,0.00,,2013-02-25 08:52:00,
2013-02-25 01:01:00,36.0,35.0,30.07,South,180,0.0,2.0,96,0.00,,,0.00,,2013-02-25 09:01:00,
2013-02-25 01:12:00,36.0,35.0,30.07,South,180,0.0,2.0,96,0.00,,,0.00,,2013-02-25 09:12:00,
2013-02-25 01:21:00,36.0,35.0,30.07,West,270,0.0,2.0,96,0.00,,,0.00,,2013-02-25 09:21:00,
2013-02-25 01:31:00,36.0,35.0,30.07,South,180,0.0,2.0,97,0.00,,,0.00,,2013-02-25 09:31:00,
2013-02-25 01:41:00,36.0,35.0,30.07,South,180,0.0,2.0,97,0.00,,,0.00,,2013-02-25 09:41:00,
2013-02-25 01:52:00,36.0,35.0,30.08,SE,135,1.0,3.0,97,0.00,,,0.00,,2013-02-25 09:52:00,
2013-02-25 02:01:00,35.0,34.0,30.08,North,360,0.0,2.0,97,0.00,,,0.00,,2013-02-25 10:01:00,
2013-02-25 02:11:00,35.0,34.0,30.08,North,360,0.0,2.0,97,0.00,,,0.00,,2013-02-25 10:11:00,
2013-02-25 02:21:00,35.0,34.0,30.07,NE,45,0.0,2.0,97,0.00,,,0.00,,2013-02-25 10:21:00,
2013-02-25 02:31:00,35.0,34.0,30.07,South,180,0.0,2.0,97,0.00,,,0.00,,2013-02-25 10:31:00,
2013-02-25 02:41:00,35.0,34.0,30.07,South,180,0.0,2.0,97,0.00,,,0.00,,2013-02-25 10:41:00,
2013-02-25 02:52:00,35.0,34.0,30.06,SW,225,1.0,3.0,98,0.00,,,0.00,,2013-02-25 10:52:00,
2013-02-25 03:01:00,35.0,34.0,30.06,SW,225,1.0,3.0,98,0.00,,,0.00,,2013-02-25 11:01:00,
2013-02-25 03:11:00,35.0,34.0,30.06,SW,225,1.0,3.0,98,0.00,,,0.00,,2013-02-25 11:11:00,
2013-02-25 03:21:00,35.0,34.0,30.06,SW,225,1.0,3.0,98,0.00,,,0.00,,2013-02-25 11:21:00,
2013-02-25 03:31:00,34.0,34.0,30.06,SW,225,0.0,2.0,98,0.00,,,0.00,,2013-02-25 11:31:00,
2013-02-25 03:42:00,34.0,34.0,30.06,SW,225,0.0,2.0,98,0.00,,,0.00,,2013-02-25 11:42:00,
2013-02-25 03:52:00,34.0,34.0,30.06,SW,225,0.0,2.0,98,0.00,,,0.00,,2013-02-25 11:52:00,
2013-02-25 04:01:00,34.0,34.0,30.06,West,270,0.0,2.0,99,0.00,,,0.00,,2013-02-25 12:01:00,
2013-02-25 04:11:00,34.0,34.0,30.06,West,270,0.0,2.0,99,0.00,,,0.00,,2013-02-25 12:11:00,
2013-02-25 04:21:00,34.0,34.0,30.07,East,90,0.0,2.0,99,0.00,,,0.00,,2013-02-25 12:21:00,
2013-02-25 04:32:00,34.0,34.0,30.07,East,90,0.0,2.0,99,0.00,,,0.00,,2013-02-25 12:32:00,
2013-02-25 04:41:00,34.0,34.0,30.07,East,90,0.0,2.0,99,0.00,,,0.00,,2013-02-25 12:41:00,
2013-02-25 04:54:00,34.0,34.0,30.07,North,0,0.0,2.0,99,0.00,,,0.00,,2013-02-25 12:54:00,
2013-02-25 05:01:00,33.0,33.0,30.08,SW,225,0.0,2.0,99,0.00,,,0.00,,2013-02-25 13:01:00,
2013-02-25 05:11:00,33.0,33.0,30.08,SW,225,0.0,2.0,99,0.00,,,0.00,,2013-02-25 13:11:00,
2013-02-25 05:22:00,33.0,33.0,30.08,SW,225,0.0,2.0,99,0.00,,,0.00,,2013-02-25 13:22:00,
2013-02-25 05:31:00,33.0,33.0,30.09,North,0,0.0,1.0,99,0.00,,,0.00,,2013-02-25 13:31:00,
2013-02-25 05:41:00,33.0,33.0,30.09,North,0,0.0,1.0,99,0.00,,,0.00,,2013-02-25 13:41:00,
2013-02-25 05:52:00,33.0,33.0,30.08,South,180,0.0,2.0,99,0.00,,,0.00,,2013-02-25 13:52:00,
2013-02-25 06:02:00,33.0,33.0,30.08,South,180,0.0,3.0,99,0.00,,,0.00,,2013-02-25 14:02:00,
2013-02-25 06:13:00,33.0,33.0,30.08,South,180,0.0,3.0,99,0.00,,,0.00,,2013-02-25 14:13:00,
2013-02-25 06:21:00,33.0,33.0,30.08,North,0,0.0,2.0,99,0.00,,,0.00,,2013-02-25 14:21:00,
2013-02-25 06:31:00,32.0,32.0,30.07,SW,225,0.0,2.0,99,0.00,,,0.00,,2013-02-25 14:31:00,
2013-02-25 06:41:00,32.0,32.0,30.07,SW,225,0.0,2.0,99,0.00,,,0.00,,2013-02-25 14:41:00,
2013-02-25 06:52:00,32.0,32.0,30.07,NE,45,0.0,2.0,99,0.00,,,0.00,,2013-02-25 14:52:00,
2013-02-25 07:02:00,32.0,32.0,30.07,NE,45,0.0,2.0,99,0.00,,,0.00,,2013-02-25 15:02:00,
2013-02-25 07:11:00,32.0,32.0,30.07,NE,45,0.0,2.0,99,0.00,,,0.00,,2013-02-25 15:11:00,
2013-02-25 07:21:00,32.0,32.0,30.07,East,90,0.0,2.0,99,0.00,,,0.00,,2013-02-25 15:21:00,
2013-02-25 07:32:00,32.0,32.0,30.08,North,0,0.0,2.0,99,0.00,,,0.00,,2013-02-25 15:32:00,
2013-02-25 07:42:00,32.0,32.0,30.08,North,0,0.0,2.0,99,0.00,,,0.00,,2013-02-25 15:42:00,
2013-02-25 07:52:00,34.0,34.0,30.08,SW,225,0.0,1.0,99,0.00,,,0.00,,2013-02-25 15:52:00,
2013-02-25 08:01:00,35.0,35.0,30.07,NE,45,1.0,3.0,99,0.00,,,0.00,,2013-02-25 16:01:00,
2013-02-25 08:11:00,35.0,35.0,30.07,NE,45,1.0,3.0,99,0.00,,,0.00,,2013-02-25 16:11:00,
2013-02-25 08:21:00,35.0,35.0,30.07,NE,45,1.0,3.0,99,0.00,,,0.00,,2013-02-25 16:21:00,
2013-02-25 08:31:00,35.0,35.0,30.07,NE,45,1.0,3.0,99,0.00,,,0.00,,2013-02-25 16:31:00,
2013-02-25 08:41:00,35.0,35.0,30.07,NE,45,1.0,3.0,99,0.00,,,0.00,,2013-02-25 16:41:00,
2013-02-25 08:52:00,41.0,40.0,30.09,North,0,0.0,1.0,98,0.00,,,0.00,,2013-02-25 16:52:00,
2013-02-25 09:01:00,41.0,40.0,30.09,North,0,0.0,1.0,98,0.00,,,0.00,,2013-02-25 17:01:00,
2013-02-25 09:11:00,41.0,40.0,30.09,North,0,0.0,1.0,98,0.00,,,0.00,,2013-02-25 17:11:00,
2013-02-25 09:21:00,48.0,44.0,30.08,South,180,0.0,2.0,86,0.00,,,0.00,,2013-02-25 17:21:00,
2013-02-25 09:31:00,50.0,43.0,30.07,South,180,0.0,3.0,78,0.00,,,0.00,,2013-02-25 17:31:00,
2013-02-25 09:42:00,50.0,43.0,30.07,South,180,0.0,3.0,78,0.00,,,0.00,,2013-02-25 17:42:00,
2013-02-25 09:52:00,52.0,43.0,30.07,SE,135,1.0,4.0,71,0.00,,,0.00,,2013-02-25 17:52:00,
2013-02-25 10:01:00,52.0,43.0,30.07,SE,135,1.0,4.0,71,0.00,,,0.00,,2013-02-25 18:01:00,
2013-02-25 10:12:00,52.0,43.0,30.07,SE,135,1.0,4.0,71,0.00,,,0.00,,2013-02-25 18:12:00,
2013-02-25 10:21:00,56.0,42.0,30.06,South,180,1.0,3.0,60,0.00,,,0.00,,2013-02-25 18:21:00,
2013-02-25 10:32:00,56.0,40.0,30.06,SW,225,1.0,3.0,55,0.00,,,0.00,,2013-02-25 18:32:00,
2013-02-25 10:42:00,56.0,40.0,30.06,SW,225,1.0,3.0,55,0.00,,,0.00,,2013-02-25 18:42:00,
2013-02-25 10:52:00,56.0,40.0,30.06,SW,225,1.0,3.0,55,0.00,,,0.00,,2013-02-25 18:52:00,
2013-02-25 11:01:00,58.0,41.0,30.05,East,90,1.0,4.0,54,0.00,,,0.00,,2013-02-25 19:01:00,
2013-02-25 11:21:00,59.0,41.0,30.04,West,270,1.0,4.0,52,0.00,,,0.00,,2013-02-25 19:21:00,
2013-02-25 11:31:00,59.0,41.0,30.04,West,270,1.0,4.0,52,0.00,,,0.00,,2013-02-25 19:31:00,
2013-02-25 11:41:00,59.0,41.0,30.04,West,270,1.0,4.0,52,0.00,,,0.00,,2013-02-25 19:41:00,
2013-02-25 11:52:00,59.0,41.0,30.04,West,270,1.0,4.0,52,0.00,,,0.00,,2013-02-25 19:52:00,
2013-02-25 12:01:00,61.0,36.0,30.03,West,270,2.0,8.0,39,0.00,,,0.00,,2013-02-25 20:01:00,
2013-02-25 12:11:00,61.0,36.0,30.03,West,270,2.0,8.0,39,0.00,,,0.00,,2013-02-25 20:11:00,
2013-02-25 12:21:00,62.0,37.0,30.02,NW,315,2.0,6.0,40,0.00,,,0.00,,2013-02-25 20:21:00,
2013-02-25 12:31:00,62.0,37.0,30.02,NW,315,2.0,6.0,40,0.00,,,0.00,,2013-02-25 20:31:00,
2013-02-25 12:41:00,62.0,37.0,30.02,NW,315,2.0,6.0,40,0.00,,,0.00,,2013-02-25 20:41:00,
2013-02-25 12:52:00,62.0,37.0,30.02,NW,315,2.0,6.0,40,0.00,,,0.00,,2013-02-25 20:52:00,
2013-02-25 13:01:00,59.0,41.0,30.01,West,270,4.0,9.0,51,0.00,,,0.00,,2013-02-25 21:01:00,
2013-02-25 13:11:00,59.0,41.0,30.01,West,270,4.0,9.0,51,0.00,,,0.00,,2013-02-25 21:11:00,
2013-02-25 13:21:00,60.0,39.0,30.01,NW,315,3.0,8.0,45,0.00,,,0.00,,2013-02-25 21:21:00,
2013-02-25 13:31:00,60.0,40.0,30.01,West,270,3.0,8.0,47,0.00,,,0.00,,2013-02-25 21:31:00,
2013-02-25 13:41:00,60.0,40.0,30.01,West,270,3.0,8.0,47,0.00,,,0.00,,2013-02-25 21:41:00,
2013-02-25 13:52:00,60.0,40.0,30.00,West,270,3.0,7.0,48,0.00,,,0.00,,2013-02-25 21:52:00,
2013-02-25 14:01:00,60.0,40.0,29.99,North,360,3.0,7.0,47,0.00,,,0.00,,2013-02-25 22:01:00,
2013-02-25 14:11:00,60.0,40.0,29.99,North,360,3.0,7.0,47,0.00,,,0.00,,2013-02-25 22:11:00,
2013-02-25 14:21:00,61.0,41.0,29.99,West,270,3.0,8.0,47,0.00,,,0.00,,2013-02-25 22:21:00,
2013-02-25 14:31:00,61.0,41.0,29.99,West,270,3.0,8.0,47,0.00,,,0.00,,2013-02-25 22:31:00,
2013-02-25 14:41:00,61.0,41.0,29.99,West,270,3.0,8.0,47,0.00,,,0.00,,2013-02-25 22:41:00,
2013-02-25 14:52:00,61.0,41.0,29.99,West,270,3.0,8.0,47,0.00,,,0.00,,2013-02-25 22:52:00,
2013-02-25 15:01:00,64.0,45.0,29.98,West,270,1.0,4.0,50,0.00,,,0.00,,2013-02-25 23:01:00,
2013-02-25 15:22:00,62.0,46.0,29.98,SW,225,2.0,5.0,56,0.00,,,0.00,,2013-02-25 23:22:00,
2013-02-25 15:31:00,63.0,47.0,29.97,East,90,1.0,4.0,56,0.00,,,0.00,,2013-02-25 23:31:00,
2013-02-25 15:41:00,63.0,47.0,29.97,East,90,1.0,4.0,56,0.00,,,0.00,,2013-02-25 23:41:00,
2013-02-25 15:52:00,65.0,48.0,29.97,SW,225,0.0,4.0,55,0.00,,,0.00,,2013-02-25 23:52:00,
2013-02-25 16:01:00,65.0,47.0,29.96,SW,225,1.0,4.0,53,0.00,,,0.00,,2013-02-26 00:01:00,
2013-02-25 16:11:00,65.0,47.0,29.96,SW,225,1.0,4.0,53,0.00,,,0.00,,2013-02-26 00:11:00,
2013-02-25 16:21:00,65.0,47.0,29.96,SW,225,1.0,4.0,53,0.00,,,0.00,,2013-02-26 00:21:00,
2013-02-25 16:32:00,66.0,50.0,29.96,North,360,0.0,4.0,56,0.00,,,0.00,,2013-02-26 00:32:00,
2013-02-25 16:41:00,66.0,50.0,29.96,North,360,0.0,4.0,56,0.00,,,0.00,,2013-02-26 00:41:00,
2013-02-25 16:52:00,65.0,49.0,29.96,South,180,1.0,4.0,57,0.00,,,0.00,,2013-02-26 00:52:00,
2013-02-25 17:01:00,64.0,49.0,29.96,SE,135,0.0,5.0,58,0.00,,,0.00,,2013-02-26 01:01:00,
2013-02-25 17:11:00,64.0,49.0,29.96,SE,135,0.0,5.0,58,0.00,,,0.00,,2013-02-26 01:11:00,
2013-02-25 17:21:00,63.0,49.0,29.96,North,360,1.0,4.0,61,0.00,,,0.00,,2013-02-26 01:21:00,
2013-02-25 17:31:00,60.0,48.0,29.96,South,180,1.0,7.0,65,0.00,,,0.00,,2013-02-26 01:31:00,
2013-02-25 17:41:00,60.0,48.0,29.96,South,180,1.0,7.0,65,0.00,,,0.00,,2013-02-26 01:41:00,
2013-02-25 17:52:00,58.0,48.0,29.96,East,90,0.0,3.0,69,0.00,,,0.00,,2013-02-26 01:52:00,
2013-02-25 18:01:00,55.0,47.0,29.97,South,180,0.0,5.0,73,0.00,,,0.00,,2013-02-26 02:01:00,
2013-02-25 18:11:00,55.0,47.0,29.97,South,180,0.0,5.0,73,0.00,,,0.00,,2013-02-26 02:11:00,
2013-02-25 18:21:00,53.0,46.0,29.97,WSW,248,0.0,4.0,78,0.00,,,0.00,,2013-02-26 02:21:00,
2013-02-25 18:31:00,52.0,47.0,29.97,SW,225,1.0,4.0,82,0.00,,,0.00,,2013-02-26 02:31:00,
2013-02-25 18:41:00,52.0,47.0,29.97,SW,225,1.0,4.0,82,0.00,,,0.00,,2013-02-26 02:41:00,
2013-02-25 18:52:00,51.0,46.0,29.98,SW,225,0.0,4.0,84,0.00,,,0.00,,2013-02-26 02:52:00,
2013-02-25 19:01:00,50.0,46.0,29.97,North,0,0.0,4.0,86,0.00,,,0.00,,2013-02-26 03:01:00,
2013-02-25 19:11:00,50.0,46.0,29.97,North,0,0.0,4.0,86,0.00,,,0.00,,2013-02-26 03:11:00,
2013-02-25 19:21:00,50.0,46.0,29.97,North,0,0.0,4.0,86,0.00,,,0.00,,2013-02-26 03:21:00,
2013-02-25 19:31:00,49.0,46.0,29.98,South,180,0.0,3.0,89,0.00,,,0.00,,2013-02-26 03:31:00,
2013-02-25 19:41:00,49.0,46.0,29.98,South,180,0.0,3.0,89,0.00,,,0.00,,2013-02-26 03:41:00,
2013-02-25 19:52:00,49.0,46.0,29.98,South,180,0.0,3.0,89,0.00,,,0.00,,2013-02-26 03:52:00,
2013-02-25 20:01:00,47.0,45.0,29.98,SE,135,0.0,2.0,91,0.00,,,0.00,,2013-02-26 04:01:00,
2013-02-25 20:11:00,47.0,45.0,29.98,SE,135,0.0,2.0,91,0.00,,,0.00,,2013-02-26 04:11:00,
2013-02-25 20:21:00,46.0,44.0,29.98,South,180,0.0,2.0,92,0.00,,,0.00,,2013-02-26 04:21:00,
2013-02-25 20:31:00,45.0,43.0,29.99,West,270,0.0,2.0,93,0.00,,,0.00,,2013-02-26 04:31:00,
2013-02-25 20:42:00,45.0,43.0,29.99,West,270,0.0,2.0,93,0.00,,,0.00,,2013-02-26 04:42:00,
2013-02-25 20:52:00,45.0,43.0,29.99,West,270,0.0,2.0,93,0.00,,,0.00,,2013-02-26 04:52:00,
2013-02-25 21:01:00,44.0,43.0,30.00,South,180,0.0,2.0,95,0.00,,,0.00,,2013-02-26 05:01:00,
2013-02-25 21:11:00,44.0,43.0,30.00,South,180,0.0,2.0,95,0.00,,,0.00,,2013-02-26 05:11:00,
2013-02-25 21:21:00,44.0,43.0,30.00,SW,225,0.0,2.0,96,0.00,,,0.00,,2013-02-26 05:21:00,
2013-02-25 21:31:00,44.0,43.0,30.00,SW,225,0.0,2.0,96,0.00,,,0.00,,2013-02-26 05:31:00,
2013-02-25 21:42:00,44.0,43.0,30.00,SW,225,0.0,2.0,96,0.00,,,0.00,,2013-02-26 05:42:00,
2013-02-25 21:52:00,43.0,42.0,30.00,South,180,0.0,2.0,97,0.00,,,0.00,,2013-02-26 05:52:00,
2013-02-25 22:01:00,42.0,41.0,30.01,South,180,0.0,2.0,98,0.00,,,0.00,,2013-02-26 06:01:00,
2013-02-25 22:11:00,42.0,41.0,30.01,South,180,0.0,2.0,98,0.00,,,0.00,,2013-02-26 06:11:00,
2013-02-25 22:21:00,42.0,41.0,30.01,South,180,0.0,2.0,98,0.00,,,0.00,,2013-02-26 06:21:00,
2013-02-25 22:31:00,42.0,41.0,30.01,South,180,0.0,2.0,98,0.00,,,0.00,,2013-02-26 06:31:00,
2013-02-25 22:41:00,42.0,41.0,30.01,South,180,0.0,2.0,98,0.00,,,0.00,,2013-02-26 06:41:00,
2013-02-25 22:52:00,41.0,41.0,30.01,SW,225,0.0,1.0,99,0.00,,,0.00,,2013-02-26 06:52:00,
2013-02-25 23:01:00,40.0,40.0,30.02,SE,135,0.0,2.0,99,0.00,,,0.00,,2013-02-26 07:01:00,
2013-02-25 23:11:00,40.0,40.0,30.02,SE,135,0.0,2.0,99,0.00,,,0.00,,2013-02-26 07:11:00,
2013-02-25 23:22:00,40.0,40.0,30.01,North,0,0.0,2.0,99,0.00,,,0.00,,2013-02-26 07:22:00,
2013-02-25 23:31:00,39.0,39.0,30.01,South,180,0.0,1.0,99,0.00,,,0.00,,2013-02-26 07:31:00,
2013-02-25 23:41:00,39.0,39.0,30.01,South,180,0.0,1.0,99,0.00,,,0.00,,2013-02-26 07:41:00,
2013-02-25 23:52:00,39.0,39.0,30.01,SW,225,0.0,2.0,99,0.00,,,0.00,,2013-02-26 07:52:00,